Terminal Aerodrome Forecast
Issued by NWS Paducah, KY

Home | Current Version | Previous Version | Text Only | Print | Product List | Glossary On
Versions: 1 2 3 4 5 6 7 8 9 10 11 12 13 14 15
978
FTUS43 KPAH 211120
TAFPAH
TAF
KPAH 211120Z 2112/2212 01010KT P6SM SCT050 BKN100
      TEMPO 2112/2114 5SM BR BKN010
     FM211500 02010KT P6SM SCT025 BKN050
     FM212000 03011KT P6SM VCTS BKN025CB
     FM220000 02010KT P6SM SCT030 BKN060
     FM220300 03010KT P6SM SCT060 BKN100=

USA.gov is the U.S. government's official web portal to all federal, state and local government web resources and services.